createdAt,value
2018-09-18T00:00:06.984Z,0.00
2018-09-18T00:01:07.042Z,0.00
2018-09-18T00:02:07.101Z,0.00
2018-09-18T00:03:07.162Z,0.00
2018-09-18T00:04:07.224Z,0.00
2018-09-18T00:05:07.283Z,0.00
2018-09-18T00:06:07.347Z,0.00
2018-09-18T00:07:07.405Z,0.00
2018-09-18T00:08:07.466Z,0.00
2018-09-18T00:09:07.525Z,0.00
2018-09-18T00:10:07.586Z,0.00
2018-09-18T00:11:07.646Z,0.00
2018-09-18T00:12:07.708Z,0.00
2018-09-18T00:13:07.768Z,0.00
2018-09-18T00:14:07.829Z,0.00
2018-09-18T00:15:07.888Z,0.00
2018-09-18T00:16:07.952Z,0.00
2018-09-18T00:17:08.009Z,0.00
2018-09-18T00:18:08.069Z,0.00
2018-09-18T00:19:08.133Z,0.00
2018-09-18T00:20:08.192Z,0.00
2018-09-18T00:21:08.250Z,0.00
2018-09-18T00:22:08.311Z,0.00
2018-09-18T00:23:08.622Z,0.00
2018-09-18T00:24:08.433Z,0.00
2018-09-18T00:25:08.493Z,0.00
2018-09-18T00:26:08.553Z,0.00
2018-09-18T00:27:08.615Z,0.00
2018-09-18T00:28:08.674Z,0.00
2018-09-18T00:29:08.734Z,0.00
2018-09-18T00:30:08.795Z,0.00
2018-09-18T00:31:08.855Z,0.00
2018-09-18T00:32:08.916Z,0.00
2018-09-18T00:33:08.974Z,0.00
2018-09-18T00:34:09.036Z,0.00
2018-09-18T00:35:09.096Z,0.00
2018-09-18T00:36:09.156Z,0.00
2018-09-18T00:37:09.216Z,0.00
2018-09-18T00:38:09.277Z,0.00
2018-09-18T00:39:09.338Z,0.00
2018-09-18T00:40:09.398Z,0.00
2018-09-18T00:41:09.459Z,0.00
2018-09-18T00:42:09.523Z,0.00
2018-09-18T00:43:09.578Z,0.00
2018-09-18T00:44:09.639Z,0.00
2018-09-18T00:45:09.699Z,0.00
2018-09-18T00:46:09.759Z,0.00
2018-09-18T00:47:09.820Z,0.00
2018-09-18T00:48:09.880Z,0.00
2018-09-18T00:49:09.939Z,0.00
2018-09-18T00:50:10.001Z,0.00
2018-09-18T00:51:10.064Z,0.00
2018-09-18T00:52:10.121Z,0.00
2018-09-18T00:53:10.180Z,0.00
2018-09-18T00:54:10.240Z,0.00
2018-09-18T00:55:10.301Z,0.00
2018-09-18T00:56:10.362Z,0.00
2018-09-18T00:57:10.420Z,0.00
2018-09-18T00:58:10.486Z,0.00
2018-09-18T00:59:10.542Z,0.00
2018-09-18T01:00:10.603Z,0.00
2018-09-18T01:01:10.664Z,0.00
2018-09-18T01:02:10.723Z,0.00
2018-09-18T01:03:10.782Z,0.00
2018-09-18T01:04:10.844Z,0.00
2018-09-18T01:05:10.902Z,0.00
2018-09-18T01:06:10.963Z,0.00
2018-09-18T01:07:11.024Z,0.00
2018-09-18T01:08:11.084Z,0.00
2018-09-18T01:09:11.142Z,0.00
2018-09-18T01:10:11.202Z,0.00
2018-09-18T01:11:11.264Z,0.00
2018-09-18T01:12:11.328Z,0.00
2018-09-18T01:13:11.384Z,0.00
2018-09-18T01:14:11.444Z,0.00
2018-09-18T01:15:11.504Z,0.00
2018-09-18T01:16:11.564Z,0.00
2018-09-18T01:17:11.626Z,0.00
2018-09-18T01:18:11.687Z,0.00
2018-09-18T01:19:11.748Z,0.00
2018-09-18T01:20:11.805Z,0.00
2018-09-18T01:21:11.864Z,0.00
2018-09-18T01:22:11.924Z,0.00
2018-09-18T01:23:11.984Z,0.00
2018-09-18T01:24:12.045Z,0.00
2018-09-18T01:25:12.104Z,0.00
2018-09-18T01:26:12.165Z,0.00
2018-09-18T01:27:12.225Z,0.00
2018-09-18T01:28:12.286Z,0.00
2018-09-18T01:29:12.352Z,0.00
2018-09-18T01:30:12.404Z,0.00
2018-09-18T01:31:12.466Z,0.00
2018-09-18T01:32:12.525Z,0.00
2018-09-18T01:33:12.585Z,0.00
2018-09-18T01:34:12.645Z,0.00
2018-09-18T01:35:12.706Z,0.00
2018-09-18T01:36:12.767Z,0.00
2018-09-18T01:37:12.828Z,0.00
2018-09-18T01:38:12.889Z,0.00
2018-09-18T01:39:12.945Z,0.00
2018-09-18T01:40:13.006Z,0.00
2018-09-18T01:41:13.065Z,0.00
2018-09-18T01:42:13.126Z,0.00
2018-09-18T01:43:13.185Z,0.00
2018-09-18T01:44:13.244Z,0.00
2018-09-18T01:45:13.304Z,0.00
2018-09-18T01:46:13.366Z,0.00
2018-09-18T01:47:13.426Z,0.00
2018-09-18T01:48:13.485Z,0.00
2018-09-18T01:49:13.544Z,0.00
2018-09-18T01:50:13.605Z,0.00
2018-09-18T01:51:13.667Z,0.00
2018-09-18T01:52:13.725Z,0.00
2018-09-18T01:53:13.783Z,0.00
2018-09-18T01:54:13.845Z,0.00
2018-09-18T01:55:13.905Z,0.00
2018-09-18T01:56:13.965Z,0.00
2018-09-18T01:57:14.024Z,0.00
2018-09-18T01:58:14.088Z,0.00
2018-09-18T01:59:14.144Z,0.00
2018-09-18T02:00:14.205Z,0.00
2018-09-18T02:01:14.268Z,0.00
2018-09-18T02:02:14.325Z,0.00
2018-09-18T02:03:14.384Z,0.00
2018-09-18T02:04:14.445Z,0.00
2018-09-18T02:05:14.504Z,0.00
2018-09-18T02:06:14.564Z,0.00
2018-09-18T02:07:14.624Z,0.00
2018-09-18T02:08:14.686Z,0.00
2018-09-18T02:09:14.743Z,0.00
2018-09-18T02:10:14.803Z,0.00
2018-09-18T02:11:14.863Z,0.00
2018-09-18T02:12:14.924Z,0.00
2018-09-18T02:13:14.984Z,0.00
2018-09-18T02:14:15.044Z,0.00
2018-09-18T02:15:15.103Z,0.00
2018-09-18T02:16:15.164Z,0.00
2018-09-18T02:17:15.222Z,0.00
2018-09-18T02:18:15.282Z,0.00
2018-09-18T02:19:15.342Z,0.00
2018-09-18T02:20:15.402Z,0.00
2018-09-18T02:21:15.461Z,0.00
2018-09-18T02:22:15.521Z,0.00
2018-09-18T02:23:15.581Z,0.00
2018-09-18T02:24:15.641Z,0.00
2018-09-18T02:25:15.700Z,0.00
2018-09-18T02:26:15.760Z,0.00
2018-09-18T02:27:15.820Z,0.00
2018-09-18T02:28:15.880Z,0.00
2018-09-18T02:29:15.938Z,0.00
2018-09-18T02:30:15.999Z,0.00
2018-09-18T02:31:16.060Z,0.00
2018-09-18T02:32:16.120Z,0.00
2018-09-18T02:33:16.180Z,0.00
2018-09-18T02:34:16.238Z,0.00
2018-09-18T02:35:16.299Z,0.00
2018-09-18T02:36:16.362Z,0.00
2018-09-18T02:37:16.424Z,0.00
2018-09-18T02:38:16.476Z,0.00
2018-09-18T02:39:16.539Z,0.00
2018-09-18T02:40:16.603Z,0.00
2018-09-18T02:41:16.654Z,0.00
2018-09-18T02:42:16.715Z,0.00
2018-09-18T02:43:16.775Z,0.00
2018-09-18T02:44:17.084Z,0.00
2018-09-18T02:45:16.893Z,0.00
2018-09-18T02:46:16.953Z,0.00
2018-09-18T02:47:17.013Z,0.00
2018-09-18T02:48:17.073Z,0.00
2018-09-18T02:49:17.131Z,0.00
2018-09-18T02:50:17.194Z,0.00
2018-09-18T02:51:17.250Z,0.00
2018-09-18T02:52:17.313Z,0.00
2018-09-18T02:53:17.369Z,0.00
2018-09-18T02:54:17.430Z,0.00
2018-09-18T02:55:17.490Z,0.00
2018-09-18T02:56:17.548Z,0.00
2018-09-18T02:57:17.608Z,0.00
2018-09-18T02:58:17.668Z,0.00
2018-09-18T02:59:17.727Z,0.00
2018-09-18T03:00:17.787Z,0.00
2018-09-18T03:01:17.846Z,0.00
2018-09-18T03:02:17.906Z,0.00
2018-09-18T03:03:17.968Z,0.00
2018-09-18T03:04:18.026Z,0.00
2018-09-18T03:05:18.084Z,0.00
2018-09-18T03:06:18.144Z,0.00
2018-09-18T03:07:18.204Z,0.00
2018-09-18T03:08:18.265Z,0.00
2018-09-18T03:09:18.323Z,0.00
2018-09-18T03:10:18.382Z,0.00
2018-09-18T03:11:18.454Z,0.00
2018-09-18T03:12:18.502Z,0.00
2018-09-18T03:13:18.563Z,0.00
2018-09-18T03:14:18.622Z,0.00
2018-09-18T03:15:18.684Z,0.00
2018-09-18T03:16:18.740Z,0.00
2018-09-18T03:17:18.799Z,0.00
2018-09-18T03:18:18.861Z,0.00
2018-09-18T03:19:18.918Z,0.00
2018-09-18T03:20:18.978Z,0.00
2018-09-18T03:21:19.040Z,0.00
2018-09-18T03:22:19.096Z,0.00
2018-09-18T03:23:19.158Z,0.00
2018-09-18T03:24:19.469Z,0.00
2018-09-18T03:25:19.275Z,0.00
2018-09-18T03:26:19.335Z,0.00
2018-09-18T03:27:19.430Z,0.00
2018-09-18T03:28:19.456Z,0.00
2018-09-18T03:29:19.513Z,0.00
2018-09-18T03:30:19.572Z,0.00
2018-09-18T03:31:19.633Z,0.00
2018-09-18T03:32:19.693Z,0.00
2018-09-18T03:33:19.750Z,0.00
2018-09-18T03:34:19.811Z,0.00
2018-09-18T03:35:19.873Z,0.00
2018-09-18T03:36:19.932Z,0.00
2018-09-18T03:37:19.989Z,0.00
2018-09-18T03:38:20.048Z,0.00
2018-09-18T03:39:20.109Z,0.00
2018-09-18T03:40:20.168Z,0.00
2018-09-18T03:41:20.225Z,0.00
2018-09-18T03:42:20.289Z,0.00
2018-09-18T03:43:20.346Z,0.00
2018-09-18T03:44:20.407Z,0.00
2018-09-18T03:45:20.464Z,0.00
2018-09-18T03:46:20.527Z,0.00
2018-09-18T03:47:20.584Z,0.00
2018-09-18T03:48:20.644Z,0.00
2018-09-18T03:49:20.953Z,0.00
2018-09-18T03:50:20.762Z,0.00
2018-09-18T03:51:20.821Z,0.00
2018-09-18T03:52:20.881Z,0.00
2018-09-18T03:53:20.939Z,0.00
2018-09-18T03:54:21.004Z,0.00
2018-09-18T03:55:21.060Z,0.00
2018-09-18T03:56:21.118Z,0.00
2018-09-18T03:57:21.207Z,4.00
2018-09-18T03:58:21.237Z,4.00
2018-09-18T03:59:21.297Z,4.00
2018-09-18T04:00:21.357Z,4.00
2018-09-18T04:01:21.415Z,4.00
2018-09-18T04:02:21.474Z,4.00
2018-09-18T04:03:21.534Z,4.00
2018-09-18T04:04:21.595Z,4.00
2018-09-18T04:05:21.654Z,4.00
2018-09-18T04:06:21.713Z,4.00
2018-09-18T04:07:21.773Z,4.00
2018-09-18T04:08:21.832Z,4.00
2018-09-18T04:09:21.892Z,4.00
2018-09-18T04:10:21.950Z,4.00
2018-09-18T04:11:22.010Z,4.00
2018-09-18T04:12:22.069Z,4.00
2018-09-18T04:13:22.127Z,4.00
2018-09-18T04:14:22.189Z,4.00
2018-09-18T04:15:22.247Z,4.00
2018-09-18T04:16:22.305Z,4.00
2018-09-18T04:17:22.372Z,4.00
2018-09-18T04:18:22.424Z,4.00
2018-09-18T04:19:22.486Z,4.00
2018-09-18T04:20:22.544Z,4.00
2018-09-18T04:21:22.602Z,4.00
2018-09-18T04:22:22.663Z,4.00
2018-09-18T04:23:22.720Z,4.00
2018-09-18T04:24:22.782Z,4.00
2018-09-18T04:25:22.839Z,4.00
2018-09-18T04:26:22.899Z,4.00
2018-09-18T04:27:22.959Z,4.00
2018-09-18T04:28:23.017Z,4.00
2018-09-18T04:29:23.078Z,4.00
2018-09-18T04:30:23.138Z,4.00
2018-09-18T04:31:23.196Z,4.00
2018-09-18T04:32:23.262Z,4.00
2018-09-18T04:33:23.314Z,4.00
2018-09-18T04:34:23.375Z,4.00
2018-09-18T04:35:23.435Z,4.00
2018-09-18T04:36:23.494Z,4.00
2018-09-18T04:37:23.552Z,4.00
2018-09-18T04:38:23.610Z,4.00
2018-09-18T04:39:23.671Z,8.00
2018-09-18T04:40:23.730Z,8.00
2018-09-18T04:41:23.790Z,8.00
2018-09-18T04:42:23.851Z,8.00
2018-09-18T04:43:23.908Z,8.00
2018-09-18T04:44:23.968Z,8.00
2018-09-18T04:45:24.028Z,8.00
2018-09-18T04:46:24.087Z,8.00
2018-09-18T04:47:24.147Z,12.00
2018-09-18T04:48:24.206Z,8.00
2018-09-18T04:49:24.265Z,12.00
2018-09-18T04:50:24.322Z,12.00
2018-09-18T04:51:24.383Z,16.00
2018-09-18T04:52:24.445Z,16.00
2018-09-18T04:53:24.501Z,20.00
2018-09-18T04:54:24.560Z,24.00
2018-09-18T04:55:24.630Z,28.00
2018-09-18T04:56:24.679Z,32.00
2018-09-18T04:57:24.738Z,36.00
2018-09-18T04:58:24.797Z,44.00
2018-09-18T04:59:24.856Z,48.00
2018-09-18T05:00:24.916Z,56.00
2018-09-18T05:01:24.975Z,68.00
2018-09-18T05:02:25.035Z,80.00
2018-09-18T05:03:25.094Z,92.00
2018-09-18T05:04:25.166Z,104.00
2018-09-18T05:05:25.221Z,120.00
2018-09-18T05:06:25.271Z,140.00
2018-09-18T05:07:25.331Z,160.00
2018-09-18T05:08:25.391Z,180.00
2018-09-18T05:09:25.512Z,200.00
2018-09-18T05:10:25.508Z,228.00
2018-09-18T05:11:25.569Z,252.00
2018-09-18T05:12:25.627Z,280.00
2018-09-18T05:13:25.686Z,308.00
2018-09-18T05:14:25.755Z,332.00
2018-09-18T05:15:25.805Z,364.00
2018-09-18T05:16:25.864Z,392.00
2018-09-18T05:17:25.926Z,420.00
2018-09-18T05:18:25.998Z,452.00
2018-09-18T05:19:26.042Z,484.00
2018-09-18T05:20:26.100Z,520.00
2018-09-18T05:21:26.157Z,548.00
2018-09-18T05:22:26.217Z,584.00
2018-09-18T05:23:26.278Z,620.00
2018-09-18T05:24:26.337Z,652.00
2018-09-18T05:25:26.414Z,688.00
2018-09-18T05:26:26.455Z,724.00
2018-09-18T05:27:26.514Z,756.00
2018-09-18T05:28:26.583Z,792.00
2018-09-18T05:29:26.634Z,824.00
2018-09-18T05:30:26.694Z,860.00
2018-09-18T05:31:26.751Z,892.00
2018-09-18T05:32:26.812Z,928.00
2018-09-18T05:33:26.869Z,960.00
2018-09-18T05:34:26.928Z,992.00
2018-09-18T05:35:26.991Z,1024.00
2018-09-18T05:36:27.047Z,1060.00
2018-09-18T05:37:27.107Z,1092.00
2018-09-18T05:38:27.165Z,1124.00
2018-09-18T05:39:27.225Z,1156.00
2018-09-18T05:40:27.310Z,1188.00
2018-09-18T05:41:27.342Z,1216.00
2018-09-18T05:42:27.409Z,1244.00
2018-09-18T05:43:27.461Z,1276.00
2018-09-18T05:44:27.530Z,1300.00
2018-09-18T05:45:27.580Z,1332.00
2018-09-18T05:46:27.639Z,1360.00
2018-09-18T05:47:27.698Z,1384.00
2018-09-18T05:48:27.758Z,1416.00
2018-09-18T05:49:27.816Z,1440.00
2018-09-18T05:50:27.875Z,1468.00
2018-09-18T05:51:27.935Z,1496.00
2018-09-18T05:52:27.997Z,1520.00
2018-09-18T05:53:28.052Z,1544.00
2018-09-18T05:54:28.112Z,1564.00
2018-09-18T05:55:28.182Z,1592.00
2018-09-18T05:56:28.231Z,1616.00
2018-09-18T05:57:28.289Z,1632.00
2018-09-18T05:58:28.348Z,1656.00
2018-09-18T05:59:28.408Z,1680.00
2018-09-18T06:00:28.468Z,1704.00
2018-09-18T06:01:28.527Z,1724.00
2018-09-18T06:02:28.585Z,1744.00
2018-09-18T06:03:28.649Z,1768.00
2018-09-18T06:04:28.704Z,1788.00
2018-09-18T06:05:28.763Z,1808.00
2018-09-18T06:06:28.820Z,1828.00
2018-09-18T06:07:28.894Z,1856.00
2018-09-18T06:08:28.944Z,1872.00
2018-09-18T06:09:29.000Z,1896.00
2018-09-18T06:10:29.058Z,1920.00
2018-09-18T06:11:29.118Z,1940.00
2018-09-18T06:12:29.180Z,1960.00
2018-09-18T06:13:29.237Z,1976.00
2018-09-18T06:14:29.299Z,1996.00
2018-09-18T06:15:29.353Z,2012.00
2018-09-18T06:16:29.413Z,2032.00
2018-09-18T06:17:29.471Z,2048.00
2018-09-18T06:18:29.533Z,2064.00
2018-09-18T06:19:29.592Z,2084.00
2018-09-18T06:20:29.650Z,2100.00
2018-09-18T06:21:29.710Z,2116.00
2018-09-18T06:22:29.769Z,2136.00
2018-09-18T06:23:29.828Z,2152.00
2018-09-18T06:24:29.888Z,2168.00
2018-09-18T06:25:29.947Z,2184.00
2018-09-18T06:26:30.315Z,2204.00
2018-09-18T06:27:30.067Z,2220.00
2018-09-18T06:28:30.125Z,2244.00
2018-09-18T06:29:30.185Z,2260.00
2018-09-18T06:30:30.244Z,2276.00
2018-09-18T06:31:30.303Z,2300.00
2018-09-18T06:32:30.364Z,2316.00
2018-09-18T06:33:30.425Z,2336.00
2018-09-18T06:34:30.481Z,2360.00
2018-09-18T06:35:30.541Z,2380.00
2018-09-18T06:36:30.601Z,2400.00
2018-09-18T06:37:30.663Z,2420.00
2018-09-18T06:38:30.720Z,2436.00
2018-09-18T06:39:30.783Z,2456.00
2018-09-18T06:40:30.839Z,2476.00
2018-09-18T06:41:30.898Z,2496.00
2018-09-18T06:42:30.958Z,2528.00
2018-09-18T06:43:31.018Z,2560.00
2018-09-18T06:44:31.422Z,2568.00
2018-09-18T06:45:31.202Z,2588.00
2018-09-18T06:46:31.196Z,2608.00
2018-09-18T06:47:31.256Z,2624.00
2018-09-18T06:48:31.316Z,2644.00
2018-09-18T06:49:31.376Z,2652.00
2018-09-18T06:50:31.772Z,2672.00
2018-09-18T06:51:31.496Z,2684.00
2018-09-18T06:52:31.559Z,2700.00
2018-09-18T06:53:31.615Z,2716.00
2018-09-18T06:54:31.690Z,2732.00
2018-09-18T06:55:31.747Z,2744.00
2018-09-18T06:56:31.796Z,2760.00
2018-09-18T06:57:31.858Z,2772.00
2018-09-18T06:58:32.479Z,2788.00
2018-09-18T06:59:31.978Z,2800.00
2018-09-18T07:00:32.037Z,2812.00
2018-09-18T07:01:32.099Z,2828.00
2018-09-18T07:02:32.159Z,2844.00
2018-09-18T07:03:32.218Z,2856.00
2018-09-18T07:04:32.279Z,2864.00
2018-09-18T07:05:32.353Z,2880.00
2018-09-18T07:06:32.398Z,2892.00
2018-09-18T07:07:32.459Z,2916.00
2018-09-18T07:08:32.521Z,2936.00
2018-09-18T07:09:32.581Z,2948.00
2018-09-18T07:10:32.641Z,2960.00
2018-09-18T07:11:32.701Z,2976.00
2018-09-18T07:12:32.763Z,2984.00
2018-09-18T07:13:32.822Z,3000.00
2018-09-18T07:14:32.884Z,3016.00
2018-09-18T07:15:33.257Z,3024.00
2018-09-18T07:16:33.007Z,3036.00
2018-09-18T07:17:33.071Z,3048.00
2018-09-18T07:18:33.127Z,3056.00
2018-09-18T07:19:33.186Z,3072.00
2018-09-18T07:20:33.248Z,3084.00
2018-09-18T07:21:33.308Z,3100.00
2018-09-18T07:22:33.370Z,3112.00
2018-09-18T07:23:33.431Z,3128.00
2018-09-18T07:24:33.491Z,3136.00
2018-09-18T07:25:33.552Z,3148.00
2018-09-18T07:26:33.613Z,3156.00
2018-09-18T07:27:33.678Z,3168.00
2018-09-18T07:28:33.735Z,3176.00
2018-09-18T07:29:33.796Z,3184.00
2018-09-18T07:30:33.857Z,3196.00
2018-09-18T07:31:33.918Z,3204.00
2018-09-18T07:32:33.980Z,3216.00
2018-09-18T07:33:34.040Z,3228.00
2018-09-18T07:34:34.100Z,3240.00
2018-09-18T07:35:34.161Z,3256.00
2018-09-18T07:36:34.223Z,3272.00
2018-09-18T07:37:34.284Z,3284.00
2018-09-18T07:38:34.345Z,3292.00
2018-09-18T07:39:34.408Z,3304.00
2018-09-18T07:40:34.468Z,3308.00
2018-09-18T07:41:34.528Z,3316.00
2018-09-18T07:42:34.590Z,3324.00
2018-09-18T07:43:34.651Z,3328.00
2018-09-18T07:44:34.713Z,3336.00
2018-09-18T07:45:34.781Z,3352.00
2018-09-18T07:46:34.835Z,3368.00
2018-09-18T07:47:34.897Z,3384.00
2018-09-18T07:48:34.958Z,3396.00
2018-09-18T07:49:35.022Z,3412.00
2018-09-18T07:50:35.081Z,3428.00
2018-09-18T07:51:35.144Z,3444.00
2018-09-18T07:52:35.207Z,3456.00
2018-09-18T07:53:35.263Z,3464.00
2018-09-18T07:54:35.327Z,3472.00
2018-09-18T07:55:35.389Z,3480.00
2018-09-18T07:56:36.167Z,3496.00
2018-09-18T07:57:35.512Z,3500.00
2018-09-18T07:58:35.570Z,3516.00
2018-09-18T07:59:35.635Z,3528.00
2018-09-18T08:00:35.696Z,3540.00
2018-09-18T08:01:35.756Z,3552.00
2018-09-18T08:02:35.818Z,3564.00
2018-09-18T08:03:35.885Z,3576.00
2018-09-18T08:04:38.593Z,3592.00
2018-09-18T08:05:36.453Z,3608.00
2018-09-18T08:06:36.064Z,3616.00
2018-09-18T08:07:36.125Z,3624.00
2018-09-18T08:08:36.591Z,3636.00
2018-09-18T08:09:36.451Z,3640.00
2018-09-18T08:10:36.311Z,3644.00
2018-09-18T08:11:36.372Z,3644.00
2018-09-18T08:12:36.435Z,3648.00
2018-09-18T08:13:36.855Z,3664.00
2018-09-18T08:14:36.557Z,3672.00
2018-09-18T08:15:36.618Z,3688.00
2018-09-18T08:16:36.681Z,3696.00
2018-09-18T08:17:36.741Z,3708.00
2018-09-18T08:18:36.804Z,3720.00
2018-09-18T08:19:37.073Z,3728.00
2018-09-18T08:20:36.928Z,3736.00
2018-09-18T08:21:36.988Z,3740.00
2018-09-18T08:22:37.050Z,3744.00
2018-09-18T08:23:37.118Z,3752.00
2018-09-18T08:24:37.175Z,3764.00
2018-09-18T08:25:37.327Z,3776.00
2018-09-18T08:26:37.298Z,3780.00
2018-09-18T08:27:37.361Z,3784.00
2018-09-18T08:28:37.423Z,3788.00
2018-09-18T08:29:37.484Z,3796.00
2018-09-18T08:30:37.546Z,3812.00
2018-09-18T08:31:37.641Z,3828.00
2018-09-18T08:32:37.754Z,3844.00
2018-09-18T08:33:37.733Z,3852.00
2018-09-18T08:34:37.795Z,3860.00
2018-09-18T08:35:40.481Z,3864.00
2018-09-18T08:36:37.920Z,3868.00
2018-09-18T08:37:37.981Z,3872.00
2018-09-18T08:38:38.044Z,3888.00
2018-09-18T08:39:38.172Z,3896.00
2018-09-18T08:40:38.170Z,3908.00
2018-09-18T08:41:38.234Z,3912.00
2018-09-18T08:42:38.301Z,3912.00
2018-09-18T08:43:38.357Z,3916.00
2018-09-18T08:44:38.439Z,3916.00
2018-09-18T08:45:38.530Z,3920.00
2018-09-18T08:46:38.554Z,3924.00
2018-09-18T08:47:38.606Z,3936.00
2018-09-18T08:48:38.697Z,3952.00
2018-09-18T08:49:38.781Z,3964.00
2018-09-18T08:50:38.793Z,3972.00
2018-09-18T08:51:38.930Z,3980.00
2018-09-18T08:52:38.953Z,3984.00
2018-09-18T08:53:38.986Z,3992.00
2018-09-18T08:54:39.078Z,3996.00
2018-09-18T08:55:39.125Z,4000.00
2018-09-18T08:56:39.201Z,4020.00
2018-09-18T08:57:39.240Z,4032.00
2018-09-18T08:58:39.302Z,4036.00
2018-09-18T08:59:39.357Z,4036.00
2018-09-18T09:00:39.422Z,4040.00
2018-09-18T09:01:39.485Z,4040.00
2018-09-18T09:02:39.949Z,4040.00
2018-09-18T09:03:39.610Z,4056.00
2018-09-18T09:04:39.698Z,4068.00
2018-09-18T09:05:39.769Z,4084.00
2018-09-18T09:06:39.855Z,4100.00
2018-09-18T09:07:40.763Z,4116.00
2018-09-18T09:08:40.055Z,4132.00
2018-09-18T09:09:39.993Z,4156.00
2018-09-18T09:10:40.101Z,4176.00
2018-09-18T09:11:40.116Z,4188.00
2018-09-18T09:12:40.182Z,4204.00
2018-09-18T09:13:40.242Z,4216.00
2018-09-18T09:14:40.318Z,4220.00
2018-09-18T09:15:40.464Z,4232.00
2018-09-18T09:16:40.437Z,4244.00
2018-09-18T09:17:40.512Z,4256.00
2018-09-18T09:18:40.561Z,4276.00
2018-09-18T09:19:40.650Z,4292.00
2018-09-18T09:20:40.718Z,4300.00
2018-09-18T09:21:40.752Z,4308.00
2018-09-18T09:22:40.822Z,4312.00
2018-09-18T09:23:40.905Z,4312.00
2018-09-18T09:24:40.959Z,4316.00
2018-09-18T09:25:41.007Z,4320.00
2018-09-18T09:26:41.134Z,4332.00
2018-09-18T09:27:41.740Z,4372.00
2018-09-18T09:28:41.199Z,4364.00
2018-09-18T09:29:41.324Z,4388.00
2018-09-18T09:30:41.329Z,4408.00
2018-09-18T09:31:41.391Z,4436.00
2018-09-18T09:32:41.488Z,4468.00
2018-09-18T09:33:41.521Z,4500.00
2018-09-18T09:34:41.609Z,4532.00
2018-09-18T09:35:41.648Z,4556.00
2018-09-18T09:36:41.746Z,4588.00
2018-09-18T09:37:41.806Z,4612.00
2018-09-18T09:38:41.866Z,4632.00
2018-09-18T09:39:41.906Z,4660.00
2018-09-18T09:40:41.970Z,4684.00
2018-09-18T09:41:42.035Z,4716.00
2018-09-18T09:42:42.102Z,4740.00
2018-09-18T09:43:42.191Z,4796.00
2018-09-18T09:44:42.229Z,4776.00
2018-09-18T09:45:42.293Z,4800.00
2018-09-18T09:46:42.360Z,4860.00
2018-09-18T09:47:42.426Z,4868.00
2018-09-18T09:48:42.489Z,4892.00
2018-09-18T09:49:42.553Z,4920.00
2018-09-18T09:50:42.619Z,4940.00
2018-09-18T09:51:42.748Z,4964.00
2018-09-18T09:52:42.751Z,4972.00
2018-09-18T09:53:42.814Z,5032.00
2018-09-18T09:54:42.881Z,5060.00
2018-09-18T09:55:42.945Z,5080.00
2018-09-18T09:56:43.030Z,5104.00
2018-09-18T09:57:43.751Z,5116.00
2018-09-18T09:58:43.780Z,5128.00
2018-09-18T09:59:43.208Z,5136.00
2018-09-18T10:00:43.273Z,5164.00
2018-09-18T10:01:43.339Z,5204.00
2018-09-18T10:02:43.438Z,5224.00
2018-09-18T10:03:43.471Z,5228.00
2018-09-18T10:04:43.537Z,5260.00
2018-09-18T10:05:43.606Z,5276.00
2018-09-18T10:06:43.668Z,5300.00
2018-09-18T10:07:43.735Z,5292.00
2018-09-18T10:08:43.801Z,5312.00
2018-09-18T10:09:43.866Z,5340.00
2018-09-18T10:10:44.055Z,5408.00
2018-09-18T10:11:43.999Z,5424.00
2018-09-18T10:12:44.072Z,5444.00
2018-09-18T10:13:44.132Z,5452.00
2018-09-18T10:14:44.199Z,5472.00
2018-09-18T10:15:44.289Z,5516.00
2018-09-18T10:16:44.335Z,5540.00
2018-09-18T10:17:44.510Z,5528.00
2018-09-18T10:18:44.465Z,5544.00
2018-09-18T10:19:44.530Z,5584.00
2018-09-18T10:20:44.596Z,5624.00
2018-09-18T10:21:44.662Z,5652.00
2018-09-18T10:22:44.729Z,5664.00
2018-09-18T10:23:44.821Z,5684.00
2018-09-18T10:24:44.863Z,5704.00
2018-09-18T10:25:44.928Z,5752.00
2018-09-18T10:26:45.022Z,5784.00
2018-09-18T10:27:45.062Z,5828.00
2018-09-18T10:28:45.129Z,5884.00
2018-09-18T10:29:45.204Z,5956.00
2018-09-18T10:30:45.276Z,5988.00
2018-09-18T10:31:45.343Z,6016.00
2018-09-18T10:32:45.490Z,6048.00
2018-09-18T10:33:45.482Z,6104.00
2018-09-18T10:34:45.528Z,6152.00
2018-09-18T10:35:45.595Z,6204.00
2018-09-18T10:36:45.662Z,6240.00
2018-09-18T10:37:45.739Z,6352.00
2018-09-18T10:38:45.810Z,6504.00
2018-09-18T10:39:45.870Z,6664.00
2018-09-18T10:40:45.989Z,6820.00
2018-09-18T10:41:46.003Z,7052.00
2018-09-18T10:42:46.064Z,7380.00
2018-09-18T10:43:46.153Z,7912.00
2018-09-18T10:44:46.205Z,8968.00
2018-09-18T10:45:46.265Z,17160.00
2018-09-18T10:46:46.332Z,17504.00
2018-09-18T10:47:46.405Z,45248.00
2018-09-18T10:48:46.525Z,46528.00
2018-09-18T10:49:46.536Z,47040.00
2018-09-18T10:50:46.603Z,47200.00
2018-09-18T10:51:46.671Z,47008.00
2018-09-18T10:52:46.750Z,47104.00
2018-09-18T10:53:46.808Z,47104.00
2018-09-18T10:54:46.877Z,47392.00
2018-09-18T10:55:46.985Z,47584.00
2018-09-18T10:56:47.016Z,47648.00
2018-09-18T10:57:47.086Z,47552.00
2018-09-18T10:58:47.154Z,47456.00
2018-09-18T10:59:47.234Z,47328.00
2018-09-18T11:00:47.322Z,47200.00
2018-09-18T11:01:47.444Z,46944.00
2018-09-18T11:02:47.436Z,46656.00
2018-09-18T11:03:47.512Z,46336.00
2018-09-18T11:04:47.586Z,45952.00
2018-09-18T11:05:47.672Z,45984.00
2018-09-18T11:06:47.717Z,45760.00
2018-09-18T11:07:47.900Z,45504.00
2018-09-18T11:08:47.884Z,45248.00
2018-09-18T11:09:47.977Z,45024.00
2018-09-18T11:10:48.000Z,44704.00
2018-09-18T11:11:48.110Z,45024.00
2018-09-18T11:12:48.143Z,43968.00
2018-09-18T11:13:48.629Z,43776.00
2018-09-18T11:14:48.328Z,43744.00
2018-09-18T11:15:48.404Z,42976.00
2018-09-18T11:16:48.428Z,42624.00
2018-09-18T11:17:48.562Z,42400.00
2018-09-18T11:18:48.570Z,41792.00
2018-09-18T11:19:48.666Z,41216.00
2018-09-18T11:20:48.747Z,40960.00
2018-09-18T11:21:48.918Z,40320.00
2018-09-18T11:22:48.862Z,39584.00
2018-09-18T11:23:48.934Z,39584.00
2018-09-18T11:24:49.105Z,38752.00
2018-09-18T11:25:49.100Z,38464.00
2018-09-18T11:26:49.157Z,37888.00
2018-09-18T11:27:49.215Z,37344.00
2018-09-18T11:28:49.291Z,36576.00
2018-09-18T11:29:49.359Z,36096.00
2018-09-18T11:30:49.439Z,35872.00
2018-09-18T11:31:49.503Z,35360.00
2018-09-18T11:32:49.744Z,35136.00
2018-09-18T11:33:49.811Z,34624.00
2018-09-18T11:34:50.071Z,34240.00
2018-09-18T11:35:49.830Z,33856.00
2018-09-18T11:36:49.878Z,33184.00
2018-09-18T11:37:49.940Z,32992.00
2018-09-18T11:38:50.010Z,32640.00
2018-09-18T11:39:50.083Z,32256.00
2018-09-18T11:40:50.157Z,31680.00
2018-09-18T11:41:50.229Z,31200.00
2018-09-18T11:42:50.301Z,30976.00
2018-09-18T11:43:50.374Z,30848.00
2018-09-18T11:44:50.448Z,30720.00
2018-09-18T11:45:50.733Z,30272.00
2018-09-18T11:46:50.718Z,30080.00
2018-09-18T11:47:50.666Z,29888.00
2018-09-18T11:48:50.739Z,29696.00
2018-09-18T11:49:50.811Z,29792.00
2018-09-18T11:50:50.887Z,29600.00
2018-09-18T11:51:50.958Z,29440.00
2018-09-18T11:52:51.142Z,29408.00
2018-09-18T11:53:51.103Z,29376.00
2018-09-18T11:54:51.428Z,29568.00
2018-09-18T11:55:51.258Z,29568.00
2018-09-18T11:56:51.373Z,29792.00
2018-09-18T11:57:51.398Z,30016.00
2018-09-18T11:58:51.471Z,30464.00
2018-09-18T11:59:51.552Z,30592.00
2018-09-18T12:00:51.619Z,30560.00
2018-09-18T12:01:51.693Z,32960.00
2018-09-18T12:02:51.851Z,33856.00
2018-09-18T12:03:51.839Z,35136.00
2018-09-18T12:04:51.919Z,36672.00
2018-09-18T12:05:51.988Z,39488.00
2018-09-18T12:06:52.059Z,41824.00
2018-09-18T12:07:52.134Z,44896.00
2018-09-18T12:08:52.281Z,47808.00
2018-09-18T12:09:52.284Z,51008.00
2018-09-18T12:10:52.354Z,53984.00
2018-09-18T12:11:52.428Z,55872.00
2018-09-18T12:12:52.501Z,58464.00
2018-09-18T12:13:52.577Z,60704.00
2018-09-18T12:14:52.647Z,61888.00
2018-09-18T12:15:52.724Z,62752.00
2018-09-18T12:16:52.803Z,62752.00
2018-09-18T12:17:52.868Z,64320.00
2018-09-18T12:18:52.942Z,66016.00
2018-09-18T12:19:53.017Z,66464.00
2018-09-18T12:20:53.092Z,66624.00
2018-09-18T12:21:53.178Z,66528.00
2018-09-18T12:22:53.366Z,65344.00
2018-09-18T12:23:53.310Z,65440.00
2018-09-18T12:24:53.384Z,66720.00
2018-09-18T12:25:53.476Z,65536.00
2018-09-18T12:26:53.530Z,64448.00
2018-09-18T12:27:53.604Z,64160.00
2018-09-18T12:28:53.699Z,64672.00
2018-09-18T12:29:53.750Z,64736.00
2018-09-18T12:30:53.823Z,64352.00